createdAt,value
2017-04-04T00:00:24.080Z,0.06
2017-04-04T00:01:24.757Z,0.06
2017-04-04T00:02:25.296Z,0.06
2017-04-04T00:03:25.675Z,0.06
2017-04-04T00:04:26.203Z,0.06
2017-04-04T00:05:26.734Z,0.06
2017-04-04T00:06:27.263Z,0.06
2017-04-04T00:07:27.795Z,0.06
2017-04-04T00:08:28.348Z,0.06
2017-04-04T00:09:29.001Z,0.06
2017-04-04T00:10:29.539Z,0.06
2017-04-04T00:11:29.918Z,0.06
2017-04-04T00:12:30.446Z,0.06
2017-04-04T00:13:31.127Z,0.06
2017-04-04T00:14:31.505Z,0.06
2017-04-04T00:15:32.040Z,0.06
2017-04-04T00:16:32.571Z,0.06
2017-04-04T00:17:33.104Z,0.06
2017-04-04T00:18:33.641Z,0.06
2017-04-04T00:19:34.172Z,0.06
2017-04-04T00:20:34.710Z,0.06
2017-04-04T00:21:35.239Z,0.06
2017-04-04T00:22:35.768Z,0.06
2017-04-04T00:23:36.299Z,0.06
2017-04-04T00:24:36.834Z,0.06
2017-04-04T00:25:37.364Z,0.06
2017-04-04T00:26:37.889Z,0.06
2017-04-04T00:27:38.426Z,0.06
2017-04-04T00:28:38.956Z,0.06
2017-04-04T00:29:39.490Z,0.06
2017-04-04T00:30:40.024Z,0.06
2017-04-04T00:31:40.555Z,0.06
2017-04-04T00:32:41.085Z,0.06
2017-04-04T00:33:41.613Z,0.06
2017-04-04T00:34:42.140Z,0.06
2017-04-04T00:35:42.675Z,0.06
2017-04-04T00:36:43.353Z,0.06
2017-04-04T00:37:43.733Z,0.06
2017-04-04T00:38:44.267Z,0.06
2017-04-04T00:39:44.822Z,0.06
2017-04-04T00:40:45.330Z,0.06
2017-04-04T00:41:45.852Z,0.06
2017-04-04T00:42:46.392Z,0.06
2017-04-04T00:43:46.921Z,0.06
2017-04-04T00:44:47.448Z,0.06
2017-04-04T00:45:47.986Z,0.06
2017-04-04T00:46:48.511Z,0.06
2017-04-04T00:47:49.046Z,0.06
2017-04-04T00:48:49.577Z,0.06
2017-04-04T00:49:50.112Z,0.06
2017-04-04T00:50:50.635Z,0.06
2017-04-04T00:51:51.168Z,0.06
2017-04-04T00:52:51.697Z,0.06
2017-04-04T00:53:52.236Z,0.06
2017-04-04T00:54:52.759Z,0.06
2017-04-04T00:55:53.292Z,0.06
2017-04-04T00:56:53.821Z,0.07
2017-04-04T00:57:54.358Z,0.07
2017-04-04T00:58:54.894Z,0.06
2017-04-04T00:59:55.423Z,0.06
2017-04-04T01:00:55.953Z,0.06
2017-04-04T01:01:56.491Z,0.06
2017-04-04T01:02:57.019Z,0.06
2017-04-04T01:03:57.556Z,0.06
2017-04-04T01:04:58.086Z,0.06
2017-04-04T01:05:58.619Z,0.06
2017-04-04T01:06:59.147Z,0.06
2017-04-04T01:07:59.685Z,0.06
2017-04-04T01:09:00.205Z,0.06
2017-04-04T01:10:00.734Z,0.06
2017-04-04T01:11:01.264Z,0.06
2017-04-04T01:12:01.793Z,0.06
2017-04-04T01:13:02.328Z,0.06
2017-04-04T01:14:02.856Z,0.06
2017-04-04T01:15:03.382Z,0.06
2017-04-04T01:16:03.924Z,0.06
2017-04-04T01:17:04.447Z,0.06
2017-04-04T01:18:04.975Z,0.05
2017-04-04T01:19:05.506Z,0.05
2017-04-04T01:20:06.046Z,0.05
2017-04-04T01:21:06.571Z,0.05
2017-04-04T01:22:07.119Z,0.05
2017-04-04T01:23:07.629Z,0.05
2017-04-04T01:24:08.162Z,0.05
2017-04-04T01:25:08.691Z,0.05
2017-04-04T01:26:09.222Z,0.05
2017-04-04T01:27:09.905Z,0.05
2017-04-04T01:28:10.284Z,0.05
2017-04-04T01:29:10.848Z,0.05
2017-04-04T01:30:11.343Z,0.05
2017-04-04T01:31:11.911Z,0.05
2017-04-04T01:32:12.407Z,0.05
2017-04-04T01:33:12.937Z,0.06
2017-04-04T01:34:13.616Z,0.42
2017-04-04T01:35:14.000Z,0.33
2017-04-04T01:36:14.678Z,0.33
2017-04-04T01:37:15.208Z,0.24
2017-04-04T01:38:15.591Z,0.14
2017-04-04T01:39:16.122Z,0.05
2017-04-04T01:40:16.660Z,0.05
2017-04-04T01:41:17.195Z,0.05
2017-04-04T01:42:17.732Z,0.05
2017-04-04T01:43:18.417Z,0.05
2017-04-04T01:44:18.801Z,0.05
2017-04-04T01:45:19.490Z,0.05
2017-04-04T01:46:19.860Z,0.05
2017-04-04T01:47:20.538Z,0.23
2017-04-04T01:48:20.920Z,0.23
2017-04-04T01:49:21.450Z,0.06
2017-04-04T01:50:21.984Z,0.06
2017-04-04T01:51:22.659Z,0.06
2017-04-04T01:52:23.040Z,0.06
2017-04-04T01:53:23.569Z,0.06
2017-04-04T01:54:24.099Z,0.06
2017-04-04T01:55:24.634Z,0.06
2017-04-04T01:56:25.168Z,0.06
2017-04-04T01:57:25.691Z,0.07
2017-04-04T01:58:26.224Z,0.06
2017-04-04T01:59:26.789Z,0.06
2017-04-04T02:00:27.286Z,0.06
2017-04-04T02:01:27.970Z,0.06
2017-04-04T02:02:28.349Z,0.06
2017-04-04T02:03:28.885Z,0.06
2017-04-04T02:04:29.413Z,0.06
2017-04-04T02:05:29.945Z,0.06
2017-04-04T02:06:30.482Z,0.07
2017-04-04T02:07:31.013Z,0.07
2017-04-04T02:08:31.536Z,0.24
2017-04-04T02:09:32.064Z,0.06
2017-04-04T02:10:32.899Z,0.06
2017-04-04T02:11:33.130Z,0.06
2017-04-04T02:12:33.659Z,0.06
2017-04-04T02:13:34.188Z,0.06
2017-04-04T02:14:34.719Z,0.06
2017-04-04T02:15:35.244Z,0.06
2017-04-04T02:16:35.779Z,0.07
2017-04-04T02:17:36.306Z,0.07
2017-04-04T02:18:36.838Z,0.07
2017-04-04T02:19:37.516Z,0.07
2017-04-04T02:20:37.899Z,0.07
2017-04-04T02:21:38.582Z,0.06
2017-04-04T02:22:38.968Z,0.06
2017-04-04T02:23:39.500Z,0.06
2017-04-04T02:24:40.039Z,0.06
2017-04-04T02:25:40.596Z,0.06
2017-04-04T02:26:41.106Z,0.06
2017-04-04T02:27:41.636Z,0.06
2017-04-04T02:28:42.176Z,0.06
2017-04-04T02:29:42.733Z,0.06
2017-04-04T02:30:43.239Z,0.06
2017-04-04T02:31:43.774Z,0.06
2017-04-04T02:32:44.294Z,0.06
2017-04-04T02:33:44.817Z,0.06
2017-04-04T02:34:45.375Z,0.06
2017-04-04T02:35:46.034Z,0.07
2017-04-04T02:36:46.415Z,0.06
2017-04-04T02:37:47.098Z,0.06
2017-04-04T02:38:47.483Z,0.06
2017-04-04T02:39:48.034Z,0.06
2017-04-04T02:40:48.544Z,0.06
2017-04-04T02:41:49.074Z,0.06
2017-04-04T02:42:49.608Z,0.06
2017-04-04T02:43:50.289Z,0.06
2017-04-04T02:44:50.671Z,0.06
2017-04-04T02:45:51.207Z,0.06
2017-04-04T02:46:51.875Z,0.07
2017-04-04T02:47:52.259Z,0.06
2017-04-04T02:48:52.796Z,0.07
2017-04-04T02:49:53.325Z,0.06
2017-04-04T02:50:53.854Z,0.07
2017-04-04T02:51:54.535Z,0.07
2017-04-04T02:52:54.914Z,0.07
2017-04-04T02:53:55.444Z,0.07
2017-04-04T02:54:56.124Z,0.07
2017-04-04T02:55:56.504Z,0.07
2017-04-04T02:56:57.062Z,0.07
2017-04-04T02:57:57.568Z,0.07
2017-04-04T02:58:58.103Z,0.07
2017-04-04T02:59:58.635Z,0.07
2017-04-04T03:00:59.162Z,0.07
2017-04-04T03:01:59.841Z,0.07
2017-04-04T03:03:00.224Z,0.07
2017-04-04T03:04:00.754Z,0.07
2017-04-04T03:05:01.291Z,0.07
2017-04-04T03:06:01.829Z,0.07
2017-04-04T03:07:02.361Z,0.07
2017-04-04T03:08:02.888Z,0.25
2017-04-04T03:09:03.427Z,0.07
2017-04-04T03:10:03.953Z,0.07
2017-04-04T03:11:04.488Z,0.06
2017-04-04T03:12:05.166Z,0.07
2017-04-04T03:13:05.551Z,0.07
2017-04-04T03:14:06.082Z,0.07
2017-04-04T03:15:06.752Z,0.07
2017-04-04T03:16:07.289Z,0.07
2017-04-04T03:17:07.670Z,0.07
2017-04-04T03:18:08.199Z,0.07
2017-04-04T03:19:08.729Z,0.07
2017-04-04T03:20:09.409Z,0.07
2017-04-04T03:21:09.935Z,0.06
2017-04-04T03:22:10.319Z,0.06
2017-04-04T03:23:10.996Z,0.06
2017-04-04T03:24:11.390Z,0.07
2017-04-04T03:25:11.912Z,0.07
2017-04-04T03:26:12.444Z,0.07
2017-04-04T03:27:12.974Z,0.07
2017-04-04T03:28:13.502Z,0.07
2017-04-04T03:29:14.042Z,0.07
2017-04-04T03:30:14.571Z,0.07
2017-04-04T03:31:15.104Z,0.07
2017-04-04T03:32:15.630Z,0.07
2017-04-04T03:33:16.164Z,0.06
2017-04-04T03:34:16.694Z,0.07
2017-04-04T03:35:17.224Z,0.07
2017-04-04T03:36:17.903Z,0.07
2017-04-04T03:37:18.283Z,0.07
2017-04-04T03:38:18.966Z,0.06
2017-04-04T03:39:19.351Z,0.24
2017-04-04T03:40:19.885Z,0.06
2017-04-04T03:41:20.415Z,0.24
2017-04-04T03:42:20.949Z,0.24
2017-04-04T03:43:21.624Z,0.34
2017-04-04T03:44:22.007Z,0.24
2017-04-04T03:45:22.544Z,0.06
2017-04-04T03:46:23.229Z,0.06
2017-04-04T03:47:23.757Z,0.07
2017-04-04T03:48:24.143Z,0.07
2017-04-04T03:49:24.677Z,0.07
2017-04-04T03:50:25.203Z,0.06
2017-04-04T03:51:25.730Z,0.07
2017-04-04T03:52:26.259Z,0.07
2017-04-04T03:53:26.823Z,0.07
2017-04-04T03:54:27.321Z,0.07
2017-04-04T03:55:27.860Z,0.15
2017-04-04T03:56:28.539Z,0.07
2017-04-04T03:57:28.919Z,0.25
2017-04-04T03:58:29.598Z,0.34
2017-04-04T03:59:30.022Z,0.34
2017-04-04T04:00:30.510Z,0.33
2017-04-04T04:01:31.043Z,0.24
2017-04-04T04:02:31.574Z,0.24
2017-04-04T04:03:32.101Z,0.06
2017-04-04T04:04:32.636Z,0.06
2017-04-04T04:05:33.169Z,0.24
2017-04-04T04:06:33.696Z,0.34
2017-04-04T04:07:34.227Z,0.06
2017-04-04T04:08:34.761Z,0.06
2017-04-04T04:09:35.293Z,0.06
2017-04-04T04:10:35.824Z,0.06
2017-04-04T04:11:36.356Z,0.06
2017-04-04T04:12:37.037Z,0.07
2017-04-04T04:13:37.416Z,0.06
2017-04-04T04:14:37.958Z,0.34
2017-04-04T04:15:38.479Z,0.34
2017-04-04T04:16:39.003Z,0.06
2017-04-04T04:17:39.538Z,0.06
2017-04-04T04:18:40.068Z,0.06
2017-04-04T04:19:40.600Z,0.07
2017-04-04T04:20:41.131Z,0.07
2017-04-04T04:21:41.668Z,0.07
2017-04-04T04:22:42.197Z,0.34
2017-04-04T04:23:42.726Z,0.06
2017-04-04T04:24:43.271Z,0.24
2017-04-04T04:25:43.789Z,0.24
2017-04-04T04:26:44.360Z,0.24
2017-04-04T04:27:44.895Z,0.06
2017-04-04T04:28:45.395Z,0.06
2017-04-04T04:29:45.933Z,0.06
2017-04-04T04:30:46.490Z,0.06
2017-04-04T04:31:47.005Z,0.06
2017-04-04T04:32:47.524Z,0.06
2017-04-04T04:33:48.058Z,0.06
2017-04-04T04:34:48.586Z,0.06
2017-04-04T04:35:49.116Z,0.06
2017-04-04T04:36:49.645Z,0.06
2017-04-04T04:37:50.175Z,0.06
2017-04-04T04:38:50.743Z,0.06
2017-04-04T04:39:51.239Z,0.06
2017-04-04T04:40:51.770Z,0.07
2017-04-04T04:41:52.297Z,0.06
2017-04-04T04:42:52.829Z,0.06
2017-04-04T04:43:53.361Z,0.06
2017-04-04T04:44:53.892Z,0.06
2017-04-04T04:45:54.424Z,0.06
2017-04-04T04:46:54.984Z,0.07
2017-04-04T04:47:55.487Z,0.06
2017-04-04T04:48:56.165Z,0.06
2017-04-04T04:49:56.549Z,0.06
2017-04-04T04:50:57.094Z,0.07
2017-04-04T04:51:57.611Z,0.07
2017-04-04T04:52:58.140Z,0.07
2017-04-04T04:53:58.671Z,0.06
2017-04-04T04:54:59.204Z,0.07
2017-04-04T04:55:59.735Z,0.07
2017-04-04T04:57:00.263Z,0.07
2017-04-04T04:58:00.790Z,0.07
2017-04-04T04:59:01.321Z,0.07
2017-04-04T05:00:01.854Z,0.34
2017-04-04T05:01:02.384Z,0.43
2017-04-04T05:02:02.913Z,0.43
2017-04-04T05:03:03.445Z,0.24
2017-04-04T05:04:03.976Z,0.43
2017-04-04T05:05:04.661Z,0.43
2017-04-04T05:06:05.047Z,0.43
2017-04-04T05:07:05.575Z,0.24
2017-04-04T05:08:06.250Z,0.24
2017-04-04T05:09:06.641Z,0.24
2017-04-04T05:10:07.178Z,0.33
2017-04-04T05:11:07.711Z,0.43
2017-04-04T05:12:08.248Z,0.33
2017-04-04T05:13:08.774Z,0.43
2017-04-04T05:14:09.310Z,0.43
2017-04-04T05:15:09.860Z,0.06
2017-04-04T05:16:10.518Z,0.06
2017-04-04T05:17:10.905Z,0.52
2017-04-04T05:18:11.438Z,0.24
2017-04-04T05:19:11.966Z,0.61
2017-04-04T05:20:12.507Z,0.70
2017-04-04T05:21:13.176Z,0.70
2017-04-04T05:22:13.559Z,0.70
2017-04-04T05:23:14.088Z,0.33
2017-04-04T05:24:14.767Z,0.15
2017-04-04T05:25:15.148Z,0.33
2017-04-04T05:26:15.681Z,0.70
2017-04-04T05:27:16.213Z,0.61
2017-04-04T05:28:16.744Z,0.52
2017-04-04T05:29:17.426Z,0.43
2017-04-04T05:30:17.954Z,0.43
2017-04-04T05:31:18.341Z,0.33
2017-04-04T05:32:18.872Z,0.43
2017-04-04T05:33:19.398Z,0.24
2017-04-04T05:34:19.927Z,0.06
2017-04-04T05:35:20.457Z,0.06
2017-04-04T05:36:20.988Z,0.06
2017-04-04T05:37:21.513Z,0.06
2017-04-04T05:38:22.050Z,0.07
2017-04-04T05:39:22.574Z,0.33
2017-04-04T05:40:23.105Z,0.33
2017-04-04T05:41:23.638Z,0.06
2017-04-04T05:42:24.315Z,0.06
2017-04-04T05:43:24.697Z,0.06
2017-04-04T05:44:25.229Z,0.07
2017-04-04T05:45:25.760Z,0.07
2017-04-04T05:46:26.294Z,0.07
2017-04-04T05:47:26.831Z,0.07
2017-04-04T05:48:27.354Z,0.06
2017-04-04T05:49:27.908Z,0.07
2017-04-04T05:50:28.428Z,0.07
2017-04-04T05:51:28.961Z,0.07
2017-04-04T05:52:29.491Z,0.07
2017-04-04T05:53:30.056Z,0.06
2017-04-04T05:54:30.554Z,0.06
2017-04-04T05:55:31.235Z,0.06
2017-04-04T05:56:31.618Z,0.06
2017-04-04T05:57:32.152Z,0.07
2017-04-04T05:58:32.681Z,0.07
2017-04-04T05:59:33.211Z,0.07
2017-04-04T06:00:33.744Z,0.24
2017-04-04T06:01:34.271Z,0.25
2017-04-04T06:02:34.802Z,0.25
2017-04-04T06:03:35.333Z,0.15
2017-04-04T06:04:35.863Z,0.07
2017-04-04T06:05:36.397Z,0.07
2017-04-04T06:06:36.925Z,0.07
2017-04-04T06:07:37.484Z,0.07
2017-04-04T06:08:37.986Z,0.07
2017-04-04T06:09:38.519Z,0.07
2017-04-04T06:10:39.050Z,0.07
2017-04-04T06:11:39.576Z,0.52
2017-04-04T06:12:40.112Z,0.34
2017-04-04T06:13:40.642Z,0.24
2017-04-04T06:14:41.176Z,0.07
2017-04-04T06:15:41.703Z,0.43
2017-04-04T06:16:42.236Z,0.52
2017-04-04T06:17:42.772Z,0.34
2017-04-04T06:18:43.300Z,0.34
2017-04-04T06:19:43.826Z,0.34
2017-04-04T06:20:44.364Z,0.07
2017-04-04T06:21:44.890Z,0.34
2017-04-04T06:22:45.425Z,0.25
2017-04-04T06:23:45.954Z,0.06
2017-04-04T06:24:46.486Z,0.07
2017-04-04T06:25:47.015Z,0.07
2017-04-04T06:26:47.550Z,0.07
2017-04-04T06:27:48.082Z,0.44
2017-04-04T06:28:48.616Z,0.44
2017-04-04T06:29:49.151Z,0.25
2017-04-04T06:30:49.688Z,0.07
2017-04-04T06:31:50.221Z,0.07
2017-04-04T06:32:50.750Z,0.07
2017-04-04T06:33:51.431Z,0.62
2017-04-04T06:34:51.809Z,0.62
2017-04-04T06:35:52.489Z,0.62
2017-04-04T06:36:53.017Z,0.62
2017-04-04T06:37:53.404Z,0.62
2017-04-04T06:38:53.934Z,0.71
2017-04-04T06:39:54.613Z,0.62
2017-04-04T06:40:54.993Z,0.24
2017-04-04T06:41:55.523Z,0.07
2017-04-04T06:42:56.055Z,0.07
2017-04-04T06:43:56.736Z,0.34
2017-04-04T06:44:57.117Z,0.34
2017-04-04T06:45:57.646Z,0.16
2017-04-04T06:46:58.177Z,0.07
2017-04-04T06:47:58.857Z,0.44
2017-04-04T06:48:59.238Z,0.34
2017-04-04T06:49:59.803Z,0.44
2017-04-04T06:51:00.305Z,0.52
2017-04-04T06:52:00.835Z,0.24
2017-04-04T06:53:01.388Z,0.25
2017-04-04T06:54:01.897Z,0.07
2017-04-04T06:55:02.426Z,0.07
2017-04-04T06:56:02.955Z,0.44
2017-04-04T06:57:03.485Z,0.25
2017-04-04T06:58:04.017Z,0.34
2017-04-04T06:59:04.548Z,0.07
2017-04-04T07:00:05.076Z,0.07
2017-04-04T07:01:05.607Z,0.25
2017-04-04T07:02:06.136Z,0.16
2017-04-04T07:03:06.671Z,0.44
2017-04-04T07:04:07.198Z,0.07
2017-04-04T07:05:07.877Z,0.08
2017-04-04T07:06:08.259Z,0.34
2017-04-04T07:07:08.794Z,0.44
2017-04-04T07:08:09.322Z,0.53
2017-04-04T07:09:10.001Z,0.43
2017-04-04T07:10:10.422Z,0.07
2017-04-04T07:11:10.925Z,0.07
2017-04-04T07:12:11.458Z,0.08
2017-04-04T07:13:11.993Z,0.08
2017-04-04T07:14:12.525Z,0.07
2017-04-04T07:15:13.057Z,0.53
2017-04-04T07:16:13.595Z,0.53
2017-04-04T07:17:14.133Z,0.35
2017-04-04T07:18:14.652Z,0.35
2017-04-04T07:19:15.187Z,0.52
2017-04-04T07:20:15.722Z,0.34
2017-04-04T07:21:16.248Z,0.07
2017-04-04T07:22:16.775Z,0.08
2017-04-04T07:23:17.309Z,0.08
2017-04-04T07:24:17.838Z,0.08
2017-04-04T07:25:18.388Z,0.62
2017-04-04T07:26:18.895Z,0.08
2017-04-04T07:27:19.431Z,0.26
2017-04-04T07:28:19.970Z,0.44
2017-04-04T07:29:20.495Z,0.63
2017-04-04T07:30:21.018Z,0.35
2017-04-04T07:31:21.556Z,0.52
2017-04-04T07:32:22.091Z,0.34
2017-04-04T07:33:22.613Z,0.08
2017-04-04T07:34:23.143Z,0.08
2017-04-04T07:35:23.673Z,0.16
2017-04-04T07:36:24.354Z,0.16
2017-04-04T07:37:24.734Z,0.63
2017-04-04T07:38:25.269Z,0.53
2017-04-04T07:39:25.797Z,0.81
2017-04-04T07:40:26.324Z,0.72
2017-04-04T07:41:26.859Z,0.44
2017-04-04T07:42:28.596Z,0.35
2017-04-04T07:43:27.911Z,0.53
2017-04-04T07:44:28.434Z,0.72
2017-04-04T07:45:28.993Z,0.63
2017-04-04T07:46:29.504Z,0.90
2017-04-04T07:47:30.033Z,0.25
2017-04-04T07:48:30.596Z,0.08
2017-04-04T07:49:31.093Z,0.08
2017-04-04T07:50:31.623Z,0.08
2017-04-04T07:51:32.160Z,0.25
2017-04-04T07:52:32.694Z,0.08
2017-04-04T07:53:33.235Z,0.07
2017-04-04T07:54:33.912Z,0.07
2017-04-04T07:55:34.341Z,0.07
2017-04-04T07:56:34.824Z,0.35
2017-04-04T07:57:35.357Z,0.07
2017-04-04T07:58:35.897Z,0.44
2017-04-04T07:59:36.415Z,0.53
2017-04-04T08:00:36.946Z,0.35
2017-04-04T08:01:37.488Z,0.08
2017-04-04T08:02:38.005Z,0.08
2017-04-04T08:03:38.683Z,0.44
2017-04-04T08:04:39.070Z,0.53
2017-04-04T08:05:39.600Z,0.36
2017-04-04T08:06:40.163Z,0.29
2017-04-04T08:07:40.664Z,0.09
2017-04-04T08:08:41.201Z,0.36
2017-04-04T08:09:41.720Z,0.36
2017-04-04T08:10:42.251Z,0.09
2017-04-04T08:11:42.791Z,0.36
2017-04-04T08:12:43.346Z,0.45
2017-04-04T08:13:43.844Z,0.36
2017-04-04T08:14:44.380Z,0.09
2017-04-04T08:15:44.912Z,0.09
2017-04-04T08:16:45.442Z,0.09
2017-04-04T08:17:45.973Z,0.27
2017-04-04T08:18:46.653Z,0.36
2017-04-04T08:19:47.035Z,0.55
2017-04-04T08:20:47.716Z,0.64
2017-04-04T08:21:48.099Z,0.74
2017-04-04T08:22:48.774Z,0.73
2017-04-04T08:23:49.165Z,0.64
2017-04-04T08:24:49.688Z,0.73
2017-04-04T08:25:50.219Z,0.64
2017-04-04T08:26:50.750Z,0.83
2017-04-04T08:27:51.284Z,0.83
2017-04-04T08:28:51.814Z,0.63
2017-04-04T08:29:52.342Z,0.73
2017-04-04T08:30:52.869Z,0.63
2017-04-04T08:31:53.402Z,0.54
2017-04-04T08:32:53.937Z,0.64
2017-04-04T08:33:54.468Z,0.54
2017-04-04T08:34:55.003Z,0.26
2017-04-04T08:35:55.537Z,0.46
2017-04-04T08:36:56.071Z,0.92
2017-04-04T08:37:56.602Z,0.64
2017-04-04T08:38:57.133Z,0.46
2017-04-04T08:39:57.660Z,0.64
2017-04-04T08:40:58.196Z,0.36
2017-04-04T08:41:58.734Z,0.36
2017-04-04T08:42:59.256Z,0.27
2017-04-04T08:43:59.930Z,0.27
2017-04-04T08:45:00.313Z,0.37
2017-04-04T08:46:00.993Z,0.36
2017-04-04T08:47:01.371Z,0.36
2017-04-04T08:48:01.908Z,0.36
2017-04-04T08:49:02.439Z,0.09
2017-04-04T08:50:02.977Z,0.09
2017-04-04T08:51:03.648Z,0.73
2017-04-04T08:52:04.030Z,0.27
2017-04-04T08:53:04.559Z,0.62
2017-04-04T08:54:05.276Z,0.83
2017-04-04T08:55:05.619Z,1.86
2017-04-04T08:56:06.150Z,0.83
2017-04-04T08:57:06.700Z,0.74
2017-04-04T08:58:07.212Z,0.55
2017-04-04T08:59:07.743Z,2.22
2017-04-04T09:00:08.277Z,1.76
2017-04-04T09:01:08.806Z,0.83
2017-04-04T09:02:09.338Z,1.48
2017-04-04T09:03:10.023Z,1.67
2017-04-04T09:04:10.412Z,2.41
2017-04-04T09:05:10.931Z,1.67
2017-04-04T09:06:11.612Z,2.12
2017-04-04T09:07:12.173Z,2.60
2017-04-04T09:08:12.524Z,2.41
2017-04-04T09:09:13.058Z,3.06
2017-04-04T09:10:13.591Z,1.57
2017-04-04T09:11:14.164Z,1.10
2017-04-04T09:12:15.009Z,0.82
2017-04-04T09:13:15.186Z,2.03
2017-04-04T09:14:15.724Z,1.66
2017-04-04T09:15:16.270Z,1.85
2017-04-04T09:16:16.797Z,0.91
2017-04-04T09:17:17.329Z,0.45
2017-04-04T09:18:17.860Z,0.82
2017-04-04T09:19:18.388Z,2.30
2017-04-04T09:20:18.919Z,2.12
2017-04-04T09:21:19.448Z,1.19
2017-04-04T09:22:19.980Z,1.28
2017-04-04T09:23:20.534Z,2.12
2017-04-04T09:24:21.059Z,1.28
2017-04-04T09:25:21.568Z,0.63
2017-04-04T09:26:22.105Z,1.43
2017-04-04T09:27:22.645Z,1.56
2017-04-04T09:28:23.163Z,1.10
2017-04-04T09:29:23.690Z,1.19
2017-04-04T09:30:24.222Z,1.56
2017-04-04T09:31:24.755Z,0.45
2017-04-04T09:32:25.286Z,0.82
2017-04-04T09:33:25.815Z,1.93
2017-04-04T09:34:26.350Z,0.91
2017-04-04T09:35:26.886Z,1.10
2017-04-04T09:36:27.409Z,1.10
2017-04-04T09:37:27.938Z,1.28
2017-04-04T09:38:28.470Z,0.45
2017-04-04T09:39:28.997Z,0.54
2017-04-04T09:40:29.531Z,0.54
2017-04-04T09:41:30.055Z,0.36
2017-04-04T09:42:30.588Z,1.48
2017-04-04T09:43:31.266Z,0.54
2017-04-04T09:44:31.647Z,0.63
2017-04-04T09:45:32.173Z,2.97
2017-04-04T09:46:32.707Z,2.60
2017-04-04T09:47:33.239Z,2.87
2017-04-04T09:48:33.765Z,2.12
2017-04-04T09:49:34.301Z,2.49
2017-04-04T09:50:34.828Z,2.22
2017-04-04T09:51:35.358Z,2.95
2017-04-04T09:52:35.895Z,2.76
2017-04-04T09:53:36.418Z,1.85
2017-04-04T09:54:36.952Z,1.47
2017-04-04T09:55:37.492Z,0.91
2017-04-04T09:56:38.029Z,1.94
2017-04-04T09:57:38.558Z,2.86
2017-04-04T09:58:39.094Z,2.58
2017-04-04T09:59:39.629Z,1.76
2017-04-04T10:00:40.159Z,1.57
2017-04-04T10:01:40.840Z,2.50
2017-04-04T10:02:41.219Z,1.58
2017-04-04T10:03:41.749Z,1.28
2017-04-04T10:04:42.280Z,2.13
2017-04-04T10:05:42.815Z,2.59
2017-04-04T10:06:43.347Z,2.22
2017-04-04T10:07:43.871Z,3.06
2017-04-04T10:08:44.409Z,2.87
2017-04-04T10:09:44.933Z,2.22
2017-04-04T10:10:45.609Z,3.15
2017-04-04T10:11:46.145Z,2.40
2017-04-04T10:12:46.527Z,2.13
2017-04-04T10:13:47.052Z,1.60
2017-04-04T10:14:47.734Z,2.69
2017-04-04T10:15:48.138Z,2.69
2017-04-04T10:16:48.647Z,3.12
2017-04-04T10:17:49.327Z,2.03
2017-04-04T10:18:49.709Z,1.38
2017-04-04T10:19:50.236Z,2.67
2017-04-04T10:20:50.773Z,3.52
2017-04-04T10:21:51.291Z,2.76
2017-04-04T10:22:51.828Z,1.57
2017-04-04T10:23:52.357Z,2.77
2017-04-04T10:24:53.033Z,3.25
2017-04-04T10:25:53.572Z,2.68
2017-04-04T10:26:53.950Z,1.76
2017-04-04T10:27:54.483Z,3.06
2017-04-04T10:28:55.010Z,2.32
2017-04-04T10:29:55.689Z,2.11
2017-04-04T10:30:56.068Z,2.30
2017-04-04T10:31:56.635Z,3.24
2017-04-04T10:32:57.134Z,3.04
2017-04-04T10:33:57.672Z,2.49
2017-04-04T10:34:58.200Z,3.77
2017-04-04T10:35:58.725Z,3.52
2017-04-04T10:36:59.406Z,3.05
2017-04-04T10:37:59.793Z,2.22
2017-04-04T10:39:00.339Z,2.38
2017-04-04T10:40:01.012Z,1.66
2017-04-04T10:41:01.396Z,2.41
2017-04-04T10:42:01.928Z,2.03
2017-04-04T10:43:02.456Z,3.14
2017-04-04T10:44:02.987Z,3.04
2017-04-04T10:45:03.519Z,2.32
2017-04-04T10:46:04.045Z,2.31
2017-04-04T10:47:04.587Z,1.47
2017-04-04T10:48:05.108Z,1.94
2017-04-04T10:49:05.641Z,2.13
2017-04-04T10:50:06.172Z,2.21
2017-04-04T10:51:06.700Z,1.66
2017-04-04T10:52:07.228Z,2.40
2017-04-04T10:53:07.759Z,1.38
2017-04-04T10:54:08.290Z,2.86
2017-04-04T10:55:08.823Z,1.85
2017-04-04T10:56:09.355Z,2.69
2017-04-04T10:57:09.885Z,1.38
2017-04-04T10:58:10.418Z,1.66
2017-04-04T10:59:10.949Z,1.76
2017-04-04T11:00:11.486Z,2.22
2017-04-04T11:01:12.013Z,1.95
2017-04-04T11:02:12.691Z,1.57
2017-04-04T11:03:13.076Z,2.32
2017-04-04T11:04:13.600Z,1.94
2017-04-04T11:05:14.132Z,1.48
2017-04-04T11:06:14.659Z,1.20
2017-04-04T11:07:15.195Z,1.10
2017-04-04T11:08:15.724Z,2.12
2017-04-04T11:09:16.403Z,1.67
2017-04-04T11:10:16.784Z,1.93
2017-04-04T11:11:17.315Z,1.11
2017-04-04T11:12:17.997Z,1.76
2017-04-04T11:13:18.377Z,0.92
2017-04-04T11:14:18.904Z,0.92
2017-04-04T11:15:19.439Z,1.01
2017-04-04T11:16:19.967Z,1.10
2017-04-04T11:17:20.501Z,1.76
2017-04-04T11:18:21.044Z,2.58
2017-04-04T11:19:21.569Z,2.69
2017-04-04T11:20:22.101Z,2.13
2017-04-04T11:21:22.642Z,1.48
2017-04-04T11:22:23.177Z,3.24
2017-04-04T11:23:23.701Z,2.31
2017-04-04T11:24:24.231Z,2.23
2017-04-04T11:25:24.763Z,2.32
2017-04-04T11:26:25.325Z,2.03
2017-04-04T11:27:25.824Z,2.23
2017-04-04T11:28:26.355Z,2.03
2017-04-04T11:29:26.883Z,1.11
2017-04-04T11:30:27.417Z,2.13
2017-04-04T11:31:27.950Z,1.37
2017-04-04T11:32:28.473Z,1.48
2017-04-04T11:33:29.011Z,2.23
2017-04-04T11:34:29.682Z,1.95
2017-04-04T11:35:30.064Z,1.57
2017-04-04T11:36:30.595Z,1.47
2017-04-04T11:37:31.129Z,1.67
2017-04-04T11:38:31.668Z,3.15
2017-04-04T11:39:32.192Z,2.60
2017-04-04T11:40:32.714Z,1.76
2017-04-04T11:41:33.250Z,1.95
2017-04-04T11:42:33.776Z,1.67
2017-04-04T11:43:34.305Z,1.10
2017-04-04T11:44:34.840Z,1.01
2017-04-04T11:45:35.372Z,1.20
2017-04-04T11:46:36.049Z,3.82
2017-04-04T11:47:36.429Z,2.32
2017-04-04T11:48:36.960Z,2.41
2017-04-04T11:49:37.492Z,1.01
2017-04-04T11:50:38.025Z,0.82
2017-04-04T11:51:38.561Z,1.00
2017-04-04T11:52:39.085Z,2.03
2017-04-04T11:53:39.622Z,1.58
2017-04-04T11:54:40.301Z,2.68
2017-04-04T11:55:40.684Z,2.41
2017-04-04T11:56:41.211Z,1.95
2017-04-04T11:57:41.747Z,1.29
2017-04-04T11:58:42.315Z,0.64
2017-04-04T11:59:42.813Z,1.56
2017-04-04T12:00:43.348Z,1.75
2017-04-04T12:01:43.880Z,1.48
2017-04-04T12:02:44.444Z,1.66
2017-04-04T12:03:44.940Z,1.85
2017-04-04T12:04:45.485Z,2.04
2017-04-04T12:05:46.005Z,1.76
2017-04-04T12:06:46.530Z,1.94
2017-04-04T12:07:47.061Z,2.60
2017-04-04T12:08:47.592Z,2.41
2017-04-04T12:09:48.123Z,1.75
2017-04-04T12:10:48.652Z,2.13
2017-04-04T12:11:49.185Z,1.67
2017-04-04T12:12:49.716Z,1.76
2017-04-04T12:13:50.393Z,1.56
2017-04-04T12:14:50.778Z,1.76
2017-04-04T12:15:51.303Z,1.93
2017-04-04T12:16:51.986Z,1.47
2017-04-04T12:17:52.363Z,1.01
2017-04-04T12:18:52.895Z,1.01
2017-04-04T12:19:53.424Z,1.48
2017-04-04T12:20:53.956Z,1.20
2017-04-04T12:21:54.488Z,1.20
2017-04-04T12:22:55.014Z,1.02
2017-04-04T12:23:55.551Z,1.20
2017-04-04T12:24:56.075Z,1.10
2017-04-04T12:25:56.608Z,1.85
2017-04-04T12:26:57.135Z,2.23
2017-04-04T12:27:57.666Z,1.76
2017-04-04T12:28:58.197Z,2.13
2017-04-04T12:29:58.723Z,1.48
2017-04-04T12:30:59.250Z,0.73
2017-04-04T12:31:59.781Z,0.36
2017-04-04T12:33:00.318Z,1.01
2017-04-04T12:34:00.847Z,0.82
2017-04-04T12:35:01.378Z,0.46
2017-04-04T12:36:01.908Z,0.64
2017-04-04T12:37:02.588Z,0.27
2017-04-04T12:38:03.121Z,0.37
2017-04-04T12:39:03.506Z,0.74
2017-04-04T12:40:04.042Z,0.83
2017-04-04T12:41:04.575Z,1.02
2017-04-04T12:42:05.264Z,0.46
2017-04-04T12:43:05.646Z,0.27
2017-04-04T12:44:06.181Z,0.46
2017-04-04T12:45:06.862Z,0.83
2017-04-04T12:46:07.245Z,0.74
2017-04-04T12:47:07.768Z,0.92
2017-04-04T12:48:08.304Z,0.92
2017-04-04T12:49:08.834Z,0.64
2017-04-04T12:50:09.367Z,0.65
2017-04-04T12:51:09.895Z,0.46
2017-04-04T12:52:10.442Z,0.83
2017-04-04T12:53:10.963Z,1.21
2017-04-04T12:54:11.484Z,1.29
2017-04-04T12:55:12.046Z,0.83
2017-04-04T12:56:12.546Z,1.39
2017-04-04T12:57:13.077Z,0.74
2017-04-04T12:58:13.611Z,0.64
2017-04-04T12:59:14.140Z,0.64
2017-04-04T13:00:14.671Z,0.46
2017-04-04T13:01:15.210Z,0.65
2017-04-04T13:02:15.733Z,0.46
2017-04-04T13:03:16.263Z,1.02
2017-04-04T13:04:17.842Z,1.11
2017-04-04T13:05:17.330Z,0.37
2017-04-04T13:06:17.864Z,0.37
2017-04-04T13:07:18.388Z,0.37
2017-04-04T13:08:18.921Z,0.55
2017-04-04T13:09:19.449Z,0.46
2017-04-04T13:10:19.985Z,0.27
2017-04-04T13:11:20.655Z,0.84
2017-04-04T13:12:21.048Z,0.84
2017-04-04T13:13:21.571Z,0.55
2017-04-04T13:14:22.110Z,0.37
2017-04-04T13:15:22.632Z,1.12
2017-04-04T13:16:23.161Z,1.21
2017-04-04T13:17:23.689Z,1.02
2017-04-04T13:18:24.228Z,1.02
2017-04-04T13:19:24.752Z,1.02
2017-04-04T13:20:25.290Z,1.03
2017-04-04T13:21:25.831Z,1.21
2017-04-04T13:22:26.511Z,1.49
2017-04-04T13:23:26.897Z,1.39
2017-04-04T13:24:27.428Z,0.92
2017-04-04T13:25:27.961Z,0.55